sensor_id;sensor_type;location;lat;lon;timestamp;pressure;altitude;pressure_sealevel;temperature;humidity
11936;BME280;6027;48.576;9.180;2023-11-19T00:01:08;96806.50;;;7.21;100.00
11936;BME280;6027;48.576;9.180;2023-11-19T00:03:33;96813.09;;;7.25;100.00
11936;BME280;6027;48.576;9.180;2023-11-19T00:05:59;96821.00;;;7.25;100.00
11936;BME280;6027;48.576;9.180;2023-11-19T00:08:24;96825.94;;;7.28;100.00
11936;BME280;6027;48.576;9.180;2023-11-19T00:10:50;96831.22;;;7.28;100.00
11936;BME280;6027;48.576;9.180;2023-11-19T00:13:16;96817.38;;;7.26;100.00
11936;BME280;6027;48.576;9.180;2023-11-19T00:15:41;96814.75;;;7.26;100.00
11936;BME280;6027;48.576;9.180;2023-11-19T00:18:07;96811.13;;;7.27;100.00
11936;BME280;6027;48.576;9.180;2023-11-19T00:20:32;96808.81;;;7.32;100.00
11936;BME280;6027;48.576;9.180;2023-11-19T00:22:58;96800.28;;;7.30;100.00
11936;BME280;6027;48.576;9.180;2023-11-19T00:25:23;96795.16;;;7.37;100.00
11936;BME280;6027;48.576;9.180;2023-11-19T00:27:49;96789.41;;;7.41;100.00
11936;BME280;6027;48.576;9.180;2023-11-19T00:30:15;96791.38;;;7.39;100.00
11936;BME280;6027;48.576;9.180;2023-11-19T00:32:42;96795.50;;;7.42;100.00
11936;BME280;6027;48.576;9.180;2023-11-19T00:35:08;96795.97;;;7.37;100.00
11936;BME280;6027;48.576;9.180;2023-11-19T00:37:35;96807.34;;;7.38;100.00
11936;BME280;6027;48.576;9.180;2023-11-19T00:40:01;96798.47;;;7.39;100.00
11936;BME280;6027;48.576;9.180;2023-11-19T00:42:27;96787.13;;;7.30;100.00
11936;BME280;6027;48.576;9.180;2023-11-19T00:44:52;96781.16;;;7.36;100.00
11936;BME280;6027;48.576;9.180;2023-11-19T00:47:18;96780.03;;;7.39;100.00
11936;BME280;6027;48.576;9.180;2023-11-19T00:49:49;96773.09;;;7.38;100.00
11936;BME280;6027;48.576;9.180;2023-11-19T00:52:18;96777.38;;;7.39;100.00
11936;BME280;6027;48.576;9.180;2023-11-19T00:54:43;96764.56;;;7.44;100.00
11936;BME280;6027;48.576;9.180;2023-11-19T00:57:09;96768.00;;;7.44;100.00
11936;BME280;6027;48.576;9.180;2023-11-19T00:59:35;96771.97;;;7.48;100.00
11936;BME280;6027;48.576;9.180;2023-11-19T01:02:00;96764.06;;;7.48;100.00
11936;BME280;6027;48.576;9.180;2023-11-19T01:04:33;96756.31;;;7.55;100.00
11936;BME280;6027;48.576;9.180;2023-11-19T01:06:59;96754.66;;;7.54;100.00
11936;BME280;6027;48.576;9.180;2023-11-19T01:09:24;96754.81;;;7.60;100.00
11936;BME280;6027;48.576;9.180;2023-11-19T01:11:51;96757.31;;;7.62;100.00
11936;BME280;6027;48.576;9.180;2023-11-19T01:14:17;96751.38;;;7.60;100.00
11936;BME280;6027;48.576;9.180;2023-11-19T01:16:42;96749.72;;;7.67;100.00
11936;BME280;6027;48.576;9.180;2023-11-19T01:19:08;96752.53;;;7.66;100.00
11936;BME280;6027;48.576;9.180;2023-11-19T01:21:33;96757.31;;;7.62;100.00
11936;BME280;6027;48.576;9.180;2023-11-19T01:23:59;96737.03;;;7.62;100.00
11936;BME280;6027;48.576;9.180;2023-11-19T01:26:29;96738.38;;;7.67;100.00
11936;BME280;6027;48.576;9.180;2023-11-19T01:28:54;96736.38;;;7.69;100.00
11936;BME280;6027;48.576;9.180;2023-11-19T01:31:20;96729.75;;;7.73;100.00
11936;BME280;6027;48.576;9.180;2023-11-19T01:33:45;96721.69;;;7.74;100.00
11936;BME280;6027;48.576;9.180;2023-11-19T01:36:15;96712.97;;;7.74;100.00
11936;BME280;6027;48.576;9.180;2023-11-19T01:41:08;96709.34;;;7.83;100.00
11936;BME280;6027;48.576;9.180;2023-11-19T01:43:37;96700.44;;;7.84;100.00
11936;BME280;6027;48.576;9.180;2023-11-19T01:46:05;96699.09;;;7.88;100.00
11936;BME280;6027;48.576;9.180;2023-11-19T01:48:32;96702.03;;;7.93;100.00
11936;BME280;6027;48.576;9.180;2023-11-19T01:50:59;96702.22;;;7.91;100.00
11936;BME280;6027;48.576;9.180;2023-11-19T01:53:26;96710.25;;;7.98;100.00
11936;BME280;6027;48.576;9.180;2023-11-19T01:55:52;96706.97;;;7.96;100.00
11936;BME280;6027;48.576;9.180;2023-11-19T01:58:18;96710.25;;;7.98;100.00
11936;BME280;6027;48.576;9.180;2023-11-19T02:00:44;96719.16;;;7.97;100.00
11936;BME280;6027;48.576;9.180;2023-11-19T02:03:10;96705.97;;;7.97;100.00
11936;BME280;6027;48.576;9.180;2023-11-19T02:05:37;96701.38;;;7.99;100.00
11936;BME280;6027;48.576;9.180;2023-11-19T02:08:03;96697.56;;;8.02;100.00
11936;BME280;6027;48.576;9.180;2023-11-19T02:10:29;96693.28;;;8.01;100.00
11936;BME280;6027;48.576;9.180;2023-11-19T02:12:55;96684.06;;;8.05;100.00
11936;BME280;6027;48.576;9.180;2023-11-19T02:15:21;96683.88;;;8.06;100.00
11936;BME280;6027;48.576;9.180;2023-11-19T02:17:50;96682.06;;;8.07;100.00
11936;BME280;6027;48.576;9.180;2023-11-19T02:20:15;96681.38;;;8.13;100.00
11936;BME280;6027;48.576;9.180;2023-11-19T02:22:40;96697.19;;;8.13;100.00
11936;BME280;6027;48.576;9.180;2023-11-19T02:25:35;96690.44;;;8.10;100.00
11936;BME280;6027;48.576;9.180;2023-11-19T02:28:03;96690.91;;;8.14;100.00
11936;BME280;6027;48.576;9.180;2023-11-19T02:30:29;96685.13;;;8.18;100.00
11936;BME280;6027;48.576;9.180;2023-11-19T02:33:01;96679.34;;;8.23;100.00
11936;BME280;6027;48.576;9.180;2023-11-19T02:35:28;96682.47;;;8.26;100.00
11936;BME280;6027;48.576;9.180;2023-11-19T02:37:57;96680.00;;;8.25;100.00
11936;BME280;6027;48.576;9.180;2023-11-19T02:40:23;96668.28;;;8.27;100.00
11936;BME280;6027;48.576;9.180;2023-11-19T02:42:53;96672.09;;;8.25;100.00
11936;BME280;6027;48.576;9.180;2023-11-19T02:45:19;96676.84;;;8.29;100.00
11936;BME280;6027;48.576;9.180;2023-11-19T02:47:45;96666.78;;;8.33;100.00
11936;BME280;6027;48.576;9.180;2023-11-19T02:50:11;96668.75;;;8.31;100.00
11936;BME280;6027;48.576;9.180;2023-11-19T02:52:42;96672.91;;;8.34;100.00
11936;BME280;6027;48.576;9.180;2023-11-19T02:55:09;96686.56;;;8.37;100.00
11936;BME280;6027;48.576;9.180;2023-11-19T02:57:38;96682.25;;;8.44;100.00
11936;BME280;6027;48.576;9.180;2023-11-19T03:00:06;96684.06;;;8.44;100.00
11936;BME280;6027;48.576;9.180;2023-11-19T03:02:39;96682.53;;;8.49;100.00
11936;BME280;6027;48.576;9.180;2023-11-19T03:05:10;96675.97;;;8.45;100.00
11936;BME280;6027;48.576;9.180;2023-11-19T03:07:37;96675.78;;;8.47;100.00
11936;BME280;6027;48.576;9.180;2023-11-19T03:10:02;96681.03;;;8.55;100.00
11936;BME280;6027;48.576;9.180;2023-11-19T03:12:30;96679.84;;;8.57;100.00
11936;BME280;6027;48.576;9.180;2023-11-19T03:14:56;96682.97;;;8.61;100.00
11936;BME280;6027;48.576;9.180;2023-11-19T03:17:21;96693.19;;;8.64;100.00
11936;BME280;6027;48.576;9.180;2023-11-19T03:19:47;96695.81;;;8.64;100.00
11936;BME280;6027;48.576;9.180;2023-11-19T03:22:13;96695.00;;;8.63;100.00
11936;BME280;6027;48.576;9.180;2023-11-19T03:24:40;96691.47;;;8.71;100.00
11936;BME280;6027;48.576;9.180;2023-11-19T03:27:05;96685.03;;;8.74;100.00
11936;BME280;6027;48.576;9.180;2023-11-19T03:29:30;96691.59;;;8.78;100.00
11936;BME280;6027;48.576;9.180;2023-11-19T03:31:56;96685.69;;;8.76;100.00
11936;BME280;6027;48.576;9.180;2023-11-19T03:34:21;96690.44;;;8.80;100.00
11936;BME280;6027;48.576;9.180;2023-11-19T03:36:47;96683.16;;;8.82;100.00
11936;BME280;6027;48.576;9.180;2023-11-19T03:39:12;96683.00;;;8.84;100.00
11936;BME280;6027;48.576;9.180;2023-11-19T03:41:38;96680.34;;;8.84;100.00
11936;BME280;6027;48.576;9.180;2023-11-19T03:44:03;96672.22;;;8.85;100.00
11936;BME280;6027;48.576;9.180;2023-11-19T03:46:28;96686.91;;;8.88;100.00
11936;BME280;6027;48.576;9.180;2023-11-19T03:48:55;96677.16;;;8.88;100.00
11936;BME280;6027;48.576;9.180;2023-11-19T03:51:20;96670.63;;;8.84;100.00
11936;BME280;6027;48.576;9.180;2023-11-19T03:53:46;96674.06;;;8.85;100.00
11936;BME280;6027;48.576;9.180;2023-11-19T03:56:12;96681.28;;;8.91;100.00
11936;BME280;6027;48.576;9.180;2023-11-19T03:58:38;96685.72;;;8.90;100.00
11936;BME280;6027;48.576;9.180;2023-11-19T04:01:04;96683.75;;;8.92;100.00
11936;BME280;6027;48.576;9.180;2023-11-19T04:03:36;96681.44;;;8.89;100.00
11936;BME280;6027;48.576;9.180;2023-11-19T04:06:11;96686.69;;;8.97;100.00
11936;BME280;6027;48.576;9.180;2023-11-19T04:08:37;96680.09;;;8.93;100.00
11936;BME280;6027;48.576;9.180;2023-11-19T04:11:23;96680.56;;;8.97;100.00
11936;BME280;6027;48.576;9.180;2023-11-19T04:13:48;96678.41;;;9.00;100.00
11936;BME280;6027;48.576;9.180;2023-11-19T04:16:14;96672.94;;;9.02;100.00
11936;BME280;6027;48.576;9.180;2023-11-19T04:18:40;96662.38;;;9.02;100.00
11936;BME280;6027;48.576;9.180;2023-11-19T04:21:08;96663.22;;;9.03;100.00
11936;BME280;6027;48.576;9.180;2023-11-19T04:23:34;96683.34;;;9.04;100.00
11936;BME280;6027;48.576;9.180;2023-11-19T04:26:02;96685.06;;;9.11;100.00
11936;BME280;6027;48.576;9.180;2023-11-19T04:28:29;96695.00;;;9.09;100.00
11936;BME280;6027;48.576;9.180;2023-11-19T04:30:55;96687.84;;;9.18;100.00
11936;BME280;6027;48.576;9.180;2023-11-19T04:33:20;96682.25;;;9.13;100.00
11936;BME280;6027;48.576;9.180;2023-11-19T04:35:45;96688.38;;;9.13;100.00
11936;BME280;6027;48.576;9.180;2023-11-19T04:38:11;96690.84;;;9.15;100.00
11936;BME280;6027;48.576;9.180;2023-11-19T04:40:36;96698.06;;;9.21;100.00
11936;BME280;6027;48.576;9.180;2023-11-19T04:43:02;96711.25;;;9.21;100.00
11936;BME280;6027;48.576;9.180;2023-11-19T04:45:27;96700.59;;;9.29;100.00
11936;BME280;6027;48.576;9.180;2023-11-19T04:47:52;96703.91;;;9.31;100.00
11936;BME280;6027;48.576;9.180;2023-11-19T04:50:18;96693.63;;;9.36;100.00
11936;BME280;6027;48.576;9.180;2023-11-19T04:52:43;96694.28;;;9.38;100.00
11936;BME280;6027;48.576;9.180;2023-11-19T04:55:14;96686.00;;;9.41;100.00
11936;BME280;6027;48.576;9.180;2023-11-19T04:57:40;96688.88;;;9.46;100.00
11936;BME280;6027;48.576;9.180;2023-11-19T05:00:06;96693.00;;;9.49;100.00
11936;BME280;6027;48.576;9.180;2023-11-19T05:02:34;96697.09;;;9.51;100.00
11936;BME280;6027;48.576;9.180;2023-11-19T05:04:59;96704.69;;;9.54;100.00
11936;BME280;6027;48.576;9.180;2023-11-19T05:07:25;96707.63;;;9.59;100.00
11936;BME280;6027;48.576;9.180;2023-11-19T05:09:50;96705.31;;;9.56;100.00
11936;BME280;6027;48.576;9.180;2023-11-19T05:12:15;96707.31;;;9.54;100.00
11936;BME280;6027;48.576;9.180;2023-11-19T05:14:41;96704.31;;;9.57;100.00
11936;BME280;6027;48.576;9.180;2023-11-19T05:17:13;96700.31;;;9.61;100.00
11936;BME280;6027;48.576;9.180;2023-11-19T05:19:38;96696.22;;;9.59;100.00
11936;BME280;6027;48.576;9.180;2023-11-19T05:22:04;96694.00;;;9.62;100.00
11936;BME280;6027;48.576;9.180;2023-11-19T05:24:31;96691.47;;;9.69;100.00
11936;BME280;6027;48.576;9.180;2023-11-19T05:26:57;96690.38;;;9.63;100.00
11936;BME280;6027;48.576;9.180;2023-11-19T05:29:23;96682.81;;;9.60;100.00
11936;BME280;6027;48.576;9.180;2023-11-19T05:31:48;96683.38;;;9.70;100.00
11936;BME280;6027;48.576;9.180;2023-11-19T05:34:13;96689.28;;;9.73;100.00
11936;BME280;6027;48.576;9.180;2023-11-19T05:36:40;96696.06;;;9.75;100.00
11936;BME280;6027;48.576;9.180;2023-11-19T05:39:05;96706.09;;;9.80;100.00
11936;BME280;6027;48.576;9.180;2023-11-19T05:41:31;96707.91;;;9.79;100.00
11936;BME280;6027;48.576;9.180;2023-11-19T05:43:56;96703.06;;;9.83;100.00
11936;BME280;6027;48.576;9.180;2023-11-19T05:46:22;96703.81;;;9.91;100.00
11936;BME280;6027;48.576;9.180;2023-11-19T05:48:48;96700.16;;;9.92;100.00
11936;BME280;6027;48.576;9.180;2023-11-19T05:51:14;96694.69;;;9.94;100.00
11936;BME280;6027;48.576;9.180;2023-11-19T05:53:42;96692.41;;;9.91;100.00
11936;BME280;6027;48.576;9.180;2023-11-19T05:56:09;96698.97;;;9.95;100.00
11936;BME280;6027;48.576;9.180;2023-11-19T05:58:35;96704.72;;;9.98;100.00
11936;BME280;6027;48.576;9.180;2023-11-19T06:01:01;96712.09;;;10.03;100.00
11936;BME280;6027;48.576;9.180;2023-11-19T06:03:26;96704.91;;;9.97;100.00
11936;BME280;6027;48.576;9.180;2023-11-19T06:05:52;96707.25;;;10.07;100.00
11936;BME280;6027;48.576;9.180;2023-11-19T06:08:19;96712.38;;;10.08;100.00
11936;BME280;6027;48.576;9.180;2023-11-19T06:10:46;96718.50;;;10.09;100.00
11936;BME280;6027;48.576;9.180;2023-11-19T06:13:14;96719.13;;;10.11;100.00
11936;BME280;6027;48.576;9.180;2023-11-19T06:15:43;96719.13;;;10.11;100.00
11936;BME280;6027;48.576;9.180;2023-11-19T06:18:08;96718.50;;;10.09;100.00
11936;BME280;6027;48.576;9.180;2023-11-19T06:20:34;96724.25;;;10.12;100.00
11936;BME280;6027;48.576;9.180;2023-11-19T06:23:00;96710.00;;;10.13;100.00
11936;BME280;6027;48.576;9.180;2023-11-19T06:25:26;96715.94;;;10.15;100.00
11936;BME280;6027;48.576;9.180;2023-11-19T06:27:52;96720.94;;;10.10;100.00
11936;BME280;6027;48.576;9.180;2023-11-19T06:30:18;96724.88;;;10.14;100.00
11936;BME280;6027;48.576;9.180;2023-11-19T06:32:44;96714.94;;;10.16;100.00
11936;BME280;6027;48.576;9.180;2023-11-19T06:35:09;96718.59;;;10.15;100.00
11936;BME280;6027;48.576;9.180;2023-11-19T06:37:38;96719.59;;;10.14;100.00
11936;BME280;6027;48.576;9.180;2023-11-19T06:40:04;96718.75;;;10.14;100.00
11936;BME280;6027;48.576;9.180;2023-11-19T06:42:30;96715.75;;;10.17;100.00
11936;BME280;6027;48.576;9.180;2023-11-19T06:44:55;96720.59;;;10.13;100.00
11936;BME280;6027;48.576;9.180;2023-11-19T06:47:24;96727.34;;;10.16;100.00
11936;BME280;6027;48.576;9.180;2023-11-19T06:49:50;96706.81;;;10.03;100.00
11936;BME280;6027;48.576;9.180;2023-11-19T06:52:16;96725.06;;;10.13;100.00
11936;BME280;6027;48.576;9.180;2023-11-19T06:54:41;96728.53;;;10.13;100.00
11936;BME280;6027;48.576;9.180;2023-11-19T06:57:07;96732.47;;;10.17;100.00
11936;BME280;6027;48.576;9.180;2023-11-19T06:59:34;96733.13;;;10.19;100.00
11936;BME280;6027;48.576;9.180;2023-11-19T07:02:00;96736.59;;;10.20;100.00
11936;BME280;6027;48.576;9.180;2023-11-19T07:04:25;96737.38;;;10.20;100.00
11936;BME280;6027;48.576;9.180;2023-11-19T07:06:52;96732.09;;;10.20;100.00
11936;BME280;6027;48.576;9.180;2023-11-19T07:09:18;96732.38;;;10.25;100.00
11936;BME280;6027;48.576;9.180;2023-11-19T07:11:44;96727.72;;;10.27;100.00
11936;BME280;6027;48.576;9.180;2023-11-19T07:14:12;96739.50;;;10.25;100.00
11936;BME280;6027;48.576;9.180;2023-11-19T07:16:38;96727.72;;;10.27;100.00
11936;BME280;6027;48.576;9.180;2023-11-19T07:19:07;96723.72;;;10.31;100.00
11936;BME280;6027;48.576;9.180;2023-11-19T07:21:32;96730.47;;;10.34;100.00
11936;BME280;6027;48.576;9.180;2023-11-19T07:23:59;96725.34;;;10.32;100.00
11936;BME280;6027;48.576;9.180;2023-11-19T07:26:24;96737.31;;;10.28;100.00
11936;BME280;6027;48.576;9.180;2023-11-19T07:28:50;96747.72;;;10.30;100.00
11936;BME280;6027;48.576;9.180;2023-11-19T07:31:16;96754.00;;;10.29;100.00
11936;BME280;6027;48.576;9.180;2023-11-19T07:33:43;96757.56;;;10.36;100.00
11936;BME280;6027;48.576;9.180;2023-11-19T07:36:09;96764.03;;;10.33;100.00
11936;BME280;6027;48.576;9.180;2023-11-19T07:38:35;96761.75;;;10.30;100.00
11936;BME280;6027;48.576;9.180;2023-11-19T07:41:01;96758.22;;;10.38;100.00
11936;BME280;6027;48.576;9.180;2023-11-19T07:43:26;96749.88;;;10.41;100.00
11936;BME280;6027;48.576;9.180;2023-11-19T07:45:52;96764.94;;;10.41;100.00
11936;BME280;6027;48.576;9.180;2023-11-19T07:48:17;96751.44;;;10.35;100.00
11936;BME280;6027;48.576;9.180;2023-11-19T07:50:48;96763.50;;;10.38;100.00
11936;BME280;6027;48.576;9.180;2023-11-19T07:53:16;96757.81;;;10.41;100.00
11936;BME280;6027;48.576;9.180;2023-11-19T07:55:41;96761.75;;;10.45;100.00
11936;BME280;6027;48.576;9.180;2023-11-19T07:58:06;96760.09;;;10.44;100.00
11936;BME280;6027;48.576;9.180;2023-11-19T08:00:32;96770.16;;;10.49;100.00
11936;BME280;6027;48.576;9.180;2023-11-19T08:03:03;96761.38;;;10.48;100.00
11936;BME280;6027;48.576;9.180;2023-11-19T08:05:29;96767.13;;;10.52;100.00
11936;BME280;6027;48.576;9.180;2023-11-19T08:07:55;96765.50;;;10.51;100.00
11936;BME280;6027;48.576;9.180;2023-11-19T08:10:20;96764.31;;;10.53;100.00
11936;BME280;6027;48.576;9.180;2023-11-19T08:12:45;96754.25;;;10.49;100.00
11936;BME280;6027;48.576;9.180;2023-11-19T08:15:11;96754.78;;;10.59;100.00
11936;BME280;6027;48.576;9.180;2023-11-19T08:17:37;96749.88;;;10.56;100.00
11936;BME280;6027;48.576;9.180;2023-11-19T08:20:03;96754.34;;;10.55;100.00
11936;BME280;6027;48.576;9.180;2023-11-19T08:22:30;96752.53;;;10.56;100.00
11936;BME280;6027;48.576;9.180;2023-11-19T08:24:55;96743.19;;;10.60;100.00
11936;BME280;6027;48.576;9.180;2023-11-19T08:27:21;96743.81;;;10.62;100.00
11936;BME280;6027;48.576;9.180;2023-11-19T08:29:53;96752.50;;;10.70;100.00
11936;BME280;6027;48.576;9.180;2023-11-19T08:32:21;96754.13;;;10.71;100.00
11936;BME280;6027;48.576;9.180;2023-11-19T08:34:47;96750.03;;;10.69;100.00
11936;BME280;6027;48.576;9.180;2023-11-19T08:37:12;96750.66;;;10.71;100.00
11936;BME280;6027;48.576;9.180;2023-11-19T08:39:38;96763.97;;;10.78;100.00
11936;BME280;6027;48.576;9.180;2023-11-19T08:42:04;96756.03;;;10.78;100.00
11936;BME280;6027;48.576;9.180;2023-11-19T08:44:29;96762.13;;;10.78;100.00
11936;BME280;6027;48.576;9.180;2023-11-19T08:46:54;96754.09;;;10.86;100.00
11936;BME280;6027;48.576;9.180;2023-11-19T08:49:20;96762.03;;;10.86;100.00
11936;BME280;6027;48.576;9.180;2023-11-19T08:51:46;96761.03;;;10.87;100.00
11936;BME280;6027;48.576;9.180;2023-11-19T08:54:12;96755.75;;;10.87;100.00
11936;BME280;6027;48.576;9.180;2023-11-19T08:56:38;96758.84;;;10.91;100.00
11936;BME280;6027;48.576;9.180;2023-11-19T08:59:05;96763.59;;;10.95;100.00
11936;BME280;6027;48.576;9.180;2023-11-19T09:01:30;96763.19;;;10.98;100.00
11936;BME280;6027;48.576;9.180;2023-11-19T09:03:55;96767.00;;;11.11;100.00
11936;BME280;6027;48.576;9.180;2023-11-19T09:06:21;96758.88;;;11.12;100.00
11936;BME280;6027;48.576;9.180;2023-11-19T09:08:46;96767.06;;;11.17;100.00
11936;BME280;6027;48.576;9.180;2023-11-19T09:11:12;96763.56;;;11.17;100.00
11936;BME280;6027;48.576;9.180;2023-11-19T09:13:37;96770.16;;;11.21;100.00
11936;BME280;6027;48.576;9.180;2023-11-19T09:16:03;96761.63;;;11.25;100.00
11936;BME280;6027;48.576;9.180;2023-11-19T09:18:30;96765.00;;;11.34;100.00
11936;BME280;6027;48.576;9.180;2023-11-19T09:20:55;96773.81;;;11.41;100.00
11936;BME280;6027;48.576;9.180;2023-11-19T09:23:21;96783.75;;;11.54;100.00
11936;BME280;6027;48.576;9.180;2023-11-19T09:25:46;96778.91;;;11.64;100.00
11936;BME280;6027;48.576;9.180;2023-11-19T09:28:12;96782.84;;;11.68;100.00
11936;BME280;6027;48.576;9.180;2023-11-19T09:30:39;96787.50;;;11.66;100.00
11936;BME280;6027;48.576;9.180;2023-11-19T09:33:05;96783.91;;;11.73;100.00
11936;BME280;6027;48.576;9.180;2023-11-19T09:35:30;96780.22;;;11.74;100.00
11936;BME280;6027;48.576;9.180;2023-11-19T09:37:56;96788.53;;;11.86;100.00
11936;BME280;6027;48.576;9.180;2023-11-19T09:40:21;96796.31;;;11.94;100.00
11936;BME280;6027;48.576;9.180;2023-11-19T09:42:47;96802.06;;;11.98;100.00
11936;BME280;6027;48.576;9.180;2023-11-19T09:45:17;96788.44;;;12.01;100.00
11936;BME280;6027;48.576;9.180;2023-11-19T09:47:44;96788.25;;;12.02;100.00
11936;BME280;6027;48.576;9.180;2023-11-19T09:50:17;96789.88;;;12.03;100.00
11936;BME280;6027;48.576;9.180;2023-11-19T09:52:49;96792.97;;;12.07;100.00
11936;BME280;6027;48.576;9.180;2023-11-19T09:55:14;96797.66;;;12.05;100.00
11936;BME280;6027;48.576;9.180;2023-11-19T09:57:41;96790.75;;;12.10;100.00
11936;BME280;6027;48.576;9.180;2023-11-19T10:00:10;96777.28;;;12.12;100.00
11936;BME280;6027;48.576;9.180;2023-11-19T10:02:38;96780.34;;;12.16;100.00
11936;BME280;6027;48.576;9.180;2023-11-19T10:05:06;96784.03;;;12.15;100.00
11936;BME280;6027;48.576;9.180;2023-11-19T10:07:35;96787.31;;;12.17;100.00
11936;BME280;6027;48.576;9.180;2023-11-19T10:10:02;96771.63;;;12.22;100.00
11936;BME280;6027;48.576;9.180;2023-11-19T10:12:29;96772.88;;;12.26;100.00
11936;BME280;6027;48.576;9.180;2023-11-19T10:14:58;96773.69;;;12.26;100.00
11936;BME280;6027;48.576;9.180;2023-11-19T10:17:34;96769.44;;;12.32;100.00
11936;BME280;6027;48.576;9.180;2023-11-19T10:20:00;96769.47;;;12.38;100.00
11936;BME280;6027;48.576;9.180;2023-11-19T10:22:27;96769.72;;;12.43;100.00
11936;BME280;6027;48.576;9.180;2023-11-19T10:24:53;96779.97;;;12.53;100.00
11936;BME280;6027;48.576;9.180;2023-11-19T10:27:18;96765.50;;;12.62;100.00
11936;BME280;6027;48.576;9.180;2023-11-19T10:29:45;96773.09;;;12.65;100.00
11936;BME280;6027;48.576;9.180;2023-11-19T10:32:12;96774.31;;;12.63;100.00
11936;BME280;6027;48.576;9.180;2023-11-19T10:34:38;96767.78;;;12.65;100.00
11936;BME280;6027;48.576;9.180;2023-11-19T10:37:05;96764.13;;;12.73;100.00
11936;BME280;6027;48.576;9.180;2023-11-19T10:39:53;96780.88;;;12.73;100.00
11936;BME280;6027;48.576;9.180;2023-11-19T10:42:22;96762.66;;;12.64;100.00
11936;BME280;6027;48.576;9.180;2023-11-19T10:44:48;96756.56;;;12.70;100.00
11936;BME280;6027;48.576;9.180;2023-11-19T10:47:14;96758.59;;;12.68;100.00
11936;BME280;6027;48.576;9.180;2023-11-19T10:49:40;96748.56;;;12.63;100.00
11936;BME280;6027;48.576;9.180;2023-11-19T10:52:08;96745.09;;;12.63;100.00
11936;BME280;6027;48.576;9.180;2023-11-19T10:54:34;96755.75;;;12.76;100.00
11936;BME280;6027;48.576;9.180;2023-11-19T10:57:01;96751.84;;;12.72;100.00
11936;BME280;6027;48.576;9.180;2023-11-19T10:59:30;96730.00;;;12.70;100.00
11936;BME280;6027;48.576;9.180;2023-11-19T11:01:56;96743.50;;;12.75;100.00
11936;BME280;6027;48.576;9.180;2023-11-19T11:04:25;96737.78;;;12.78;100.00
11936;BME280;6027;48.576;9.180;2023-11-19T11:06:54;96740.47;;;12.91;100.00
11936;BME280;6027;48.576;9.180;2023-11-19T11:09:20;96740.34;;;13.06;100.00
11936;BME280;6027;48.576;9.180;2023-11-19T11:11:49;96738.34;;;13.21;100.00
11936;BME280;6027;48.576;9.180;2023-11-19T11:14:16;96724.25;;;13.27;100.00
11936;BME280;6027;48.576;9.180;2023-11-19T11:16:43;96726.28;;;13.32;100.00
11936;BME280;6027;48.576;9.180;2023-11-19T11:19:13;96725.47;;;13.51;100.00
11936;BME280;6027;48.576;9.180;2023-11-19T11:21:40;96737.78;;;13.45;100.00
11936;BME280;6027;48.576;9.180;2023-11-19T11:32:41;96733.66;;;13.49;100.00
11936;BME280;6027;48.576;9.180;2023-11-19T11:37:46;96739.00;;;13.43;100.00
11936;BME280;6027;48.576;9.180;2023-11-19T11:40:14;96745.53;;;13.47;100.00
11936;BME280;6027;48.576;9.180;2023-11-19T11:42:41;96749.00;;;13.47;100.00
11936;BME280;6027;48.576;9.180;2023-11-19T11:45:08;96745.75;;;13.52;100.00
11936;BME280;6027;48.576;9.180;2023-11-19T11:50:13;96743.47;;;13.49;100.00
11936;BME280;6027;48.576;9.180;2023-11-19T11:58:25;96724.88;;;13.62;100.00
11936;BME280;6027;48.576;9.180;2023-11-19T12:00:51;96738.19;;;13.62;100.00
11936;BME280;6027;48.576;9.180;2023-11-19T12:03:21;96732.22;;;13.67;100.00
11936;BME280;6027;48.576;9.180;2023-11-19T12:05:48;96732.84;;;13.69;100.00
11936;BME280;6027;48.576;9.180;2023-11-19T12:08:15;96738.38;;;13.67;100.00
11936;BME280;6027;48.576;9.180;2023-11-19T12:10:49;96733.47;;;13.58;100.00
11936;BME280;6027;48.576;9.180;2023-11-19T12:13:16;96729.19;;;13.43;100.00
11936;BME280;6027;48.576;9.180;2023-11-19T12:18:30;96727.13;;;13.39;100.00
11936;BME280;6027;48.576;9.180;2023-11-19T12:21:05;96714.44;;;13.34;100.00
11936;BME280;6027;48.576;9.180;2023-11-19T12:23:31;96716.69;;;13.44;100.00
11936;BME280;6027;48.576;9.180;2023-11-19T12:25:57;96725.06;;;13.41;100.00
11936;BME280;6027;48.576;9.180;2023-11-19T12:28:23;96724.84;;;13.49;100.00
11936;BME280;6027;48.576;9.180;2023-11-19T12:30:52;96724.47;;;13.45;100.00
11936;BME280;6027;48.576;9.180;2023-11-19T12:33:19;96716.09;;;13.42;100.00
11936;BME280;6027;48.576;9.180;2023-11-19T12:35:46;96700.13;;;13.42;100.00
11936;BME280;6027;48.576;9.180;2023-11-19T12:38:22;96707.47;;;13.53;100.00
11936;BME280;6027;48.576;9.180;2023-11-19T12:41:02;96715.06;;;13.56;100.00
11936;BME280;6027;48.576;9.180;2023-11-19T12:43:28;96705.84;;;13.65;100.00
11936;BME280;6027;48.576;9.180;2023-11-19T12:45:53;96703.19;;;13.72;100.00
11936;BME280;6027;48.576;9.180;2023-11-19T12:48:19;96713.84;;;13.65;100.00
11936;BME280;6027;48.576;9.180;2023-11-19T12:53:24;96701.94;;;13.74;100.00
11936;BME280;6027;48.576;9.180;2023-11-19T12:55:51;96708.69;;;13.70;100.00
11936;BME280;6027;48.576;9.180;2023-11-19T12:58:36;96694.38;;;13.71;100.00
11936;BME280;6027;48.576;9.180;2023-11-19T13:01:06;96696.41;;;13.76;100.00
11936;BME280;6027;48.576;9.180;2023-11-19T13:03:35;96682.28;;;13.69;100.00
11936;BME280;6027;48.576;9.180;2023-11-19T13:06:08;96678.84;;;13.62;100.00
11936;BME280;6027;48.576;9.180;2023-11-19T13:08:45;96680.47;;;13.63;100.00
11936;BME280;6027;48.576;9.180;2023-11-19T13:11:12;96671.88;;;13.61;100.00
11936;BME280;6027;48.576;9.180;2023-11-19T13:14:00;96668.81;;;13.64;100.00
11936;BME280;6027;48.576;9.180;2023-11-19T13:16:27;96671.66;;;13.75;100.00
11936;BME280;6027;48.576;9.180;2023-11-19T13:18:53;96670.00;;;13.88;100.00
11936;BME280;6027;48.576;9.180;2023-11-19T13:21:18;96667.72;;;13.98;100.00
11936;BME280;6027;48.576;9.180;2023-11-19T13:23:44;96657.28;;;14.03;100.00
11936;BME280;6027;48.576;9.180;2023-11-19T13:26:10;96664.66;;;14.01;100.00
11936;BME280;6027;48.576;9.180;2023-11-19T13:28:36;96664.81;;;14.06;100.00
11936;BME280;6027;48.576;9.180;2023-11-19T13:31:02;96661.59;;;14.04;100.00